Haleakala, Hawaii
Current Conditions -  °F | °C
As of 1:54 AM on Friday 24 Oct 2014 (Local Time) from PHOG Reporting Station
Broken Clouds Broken Clouds  
Wind Chill: 75°   Ceiling: 8500
Heat Index: 75°   Visibility: 10mi
Dew Point: 71°   Wind: 13mph
Humidity: 87%   Direction: 40°NE
Pressure: 30"   Gusts: NA
Location:  20.72°N, 156.13°W
Report Text: PHOG 241154Z AUTO 04011KT 10SM BKN085 24/22 A3000 RMK AO2 SLP163 60003 70003 T02390217 10250 20233 57020 TSNO
Loading
Personal Weather Stations






























Interactive Weather Map
Tropical Storm Tracking
New forecast layout! Learn more

10-Day Weather Forecast

Advertisements
Track Severe Weather on mobile